Página principal
METAR-TAF:

METAR-TAF

Aeroportos :

Hagåtña, Guam, Estados Unidos

latitude: 13-29N, longitude: 144-48E, altura: 91 m

Observação actual do tempo

O boletim foi feito há 59 minutos, às 12:54 UTC
Vento 11 kt de nordeste
Temperatura 26°C
Humidade 65%
Pressão 1013 hPa
Visibilidade: 16.1 km
Céu limpo

METAR: PGUM 161254Z 05011KT 10SM CLR 26/19 A2992 RMK AO2 SLP125 T02610194

Hora: 23:53 (13:53 UTC)

Previsão

O boletim foi feito há 2 horas e 33 minutos, às 11:20 UTC
Previsão válida de 16 às 12 UTC a 17 às 18 UTC
Vento 11 kt de es-nordeste
Visibilidade: 10 km
Nuvens dispersasa uma altura de 2000 ft
Nuvens dispersasa uma altura de 5000 ft
aguaceiros nas vizinhanças
A partir de 17 às 0000 UTC
Vento 15 kt de este com rajadas de 25 kt
Visibilidade: 10 km
Nuvens dispersasa uma altura de 2000 ft
Nuvens dispersasa uma altura de 5000 ft
aguaceiros nas vizinhanças

TAF: PGUM 161120Z 1612/1718 06011KT P6SM VCSH SCT020 SCT050 FM170000 08015G25KT P6SM VCSH SCT020 SCT050

Observações e previsões do tempo de mais de 4000 aeroportos (mensagens METAR e TAF).

As estações disponíveis são os pontos amarelos e vermelhos sobre o mapa.

Mova o rato sobre o mapa para ver o nome da estação.

Depois clique no ponto para visualizar as observações e previsões meteorológicas.

Para alterar o mapa : clique nos botões verdes com uma cruz preta para aumentar o zoom; no botão verde com uma pitada de zoom; ou nas setas verdes para mapas adjacentes.


METAR-TAF: